Time;durP1;ratioP1;P1;durP2;ratioP2;P2;SDS_P1;SDS_P2;PMS_P1;PMS_P2;Temp;Humidity;BMP_temperature;BMP_pressure;BME280_temperature;BME280_humidity;BME280_pressure;Samples;Min_cycle;Max_cycle;Signal;HPM_P1;HPM_P2
2023/09/18 00:02:08;;;;;;;11.10;5.10;;;22.90;96.90;;;;;;7432274;19;20058;-77
2023/09/18 00:04:39;;;;;;;17.38;4.68;;;22.90;96.90;;;;;;7411204;19;20023;-75
2023/09/18 00:07:07;;;;;;;;;;;22.90;96.90;;;;;;7405430;19;20007;-75
2023/09/18 00:09:36;;;;;;;12.52;5.53;;;22.90;97.00;;;;;;7384214;19;19907;-76
2023/09/18 00:12:06;;;;;;;15.32;5.78;;;23.00;96.90;;;;;;7383811;19;20007;-76
2023/09/18 00:14:35;;;;;;;17.77;6.37;;;22.90;96.70;;;;;;7383929;19;20096;-76
2023/09/18 00:17:04;;;;;;;20.65;6.60;;;22.90;96.70;;;;;;7403616;19;20013;-76
2023/09/18 00:22:46;;;;;;;18.90;5.50;;;22.90;96.70;;;;;;7382989;19;19990;-76
2023/09/18 00:25:15;;;;;;;;;;;22.80;96.60;;;;;;7387084;19;20023;-76
2023/09/18 00:27:44;;;;;;;6.57;4.20;;;22.90;96.60;;;;;;7385715;19;19910;-75
2023/09/18 00:30:13;;;;;;;14.25;4.28;;;22.80;96.50;;;;;;7381590;19;20015;-76
2023/09/18 00:32:42;;;;;;;9.77;5.07;;;22.80;96.60;;;;;;7383396;19;20020;-76
2023/09/18 00:35:10;;;;;;;8.15;3.70;;;22.80;96.40;;;;;;7407083;19;20010;-77
2023/09/18 00:37:39;;;;;;;7.30;3.63;;;22.80;96.40;;;;;;7383593;19;20007;-75
2023/09/18 00:40:13;;;;;;;7.80;3.40;;;22.70;96.30;;;;;;7383900;19;20074;-75
2023/09/18 00:42:41;;;;;;;10.07;3.55;;;22.70;96.30;;;;;;7382791;19;20003;-77
2023/09/18 00:45:11;;;;;;;10.77;3.33;;;22.70;96.30;;;;;;7383252;19;20006;-76
2023/09/18 00:47:40;;;;;;;11.10;3.00;;;22.70;96.20;;;;;;7382091;19;20362;-75
2023/09/18 00:50:11;;;;;;;9.20;3.15;;;22.70;96.10;;;;;;7404004;19;20014;-75
2023/09/18 00:52:41;;;;;;;3.60;2.50;;;22.60;95.90;;;;;;7382117;19;20020;-77
2023/09/18 00:55:13;;;;;;;11.40;2.47;;;22.60;96.00;;;;;;7381822;19;20263;-75
2023/09/18 00:57:42;;;;;;;5.15;2.78;;;22.50;95.50;;;;;;7381412;19;20030;-76
2023/09/18 01:00:15;;;;;;;8.55;2.72;;;22.50;95.60;;;;;;7382939;19;20007;-76
2023/09/18 01:02:44;;;;;;;5.47;2.53;;;22.40;95.50;;;;;;7384312;19;20016;-76
2023/09/18 01:05:16;;;;;;;12.43;2.83;;;22.40;95.40;;;;;;7406329;19;20410;-75
2023/09/18 01:07:46;;;;;;;9.15;2.70;;;22.30;95.50;;;;;;7384869;19;20002;-76
2023/09/18 01:10:19;;;;;;;5.22;2.22;;;22.30;95.50;;;;;;7384281;19;20066;-76
2023/09/18 01:12:53;;;;;;;5.60;2.75;;;22.20;95.70;;;;;;7381557;19;20264;-76
2023/09/18 01:15:28;;;;;;;11.63;2.42;;;22.30;95.90;;;;;;7382410;19;20015;-76
2023/09/18 01:17:57;;;;;;;8.02;2.72;;;22.30;95.90;;;;;;7382372;19;20011;-76
2023/09/18 01:20:27;;;;;;;5.75;2.58;;;22.40;96.00;;;;;;7385516;19;20015;-76
2023/09/18 01:22:58;;;;;;;8.93;2.70;;;22.40;95.90;;;;;;7410079;19;20031;-76
2023/09/18 01:25:26;;;;;;;;;;;22.40;95.70;;;;;;7388483;19;20010;-75
2023/09/18 01:27:55;;;;;;;7.35;2.35;;;22.50;95.70;;;;;;7388827;19;19910;-76
2023/09/18 01:30:24;;;;;;;5.68;2.38;;;22.50;95.60;;;;;;7386625;19;20020;-76
2023/09/18 01:32:54;;;;;;;6.85;2.10;;;22.50;95.60;;;;;;7381496;19;20003;-76
2023/09/18 01:35:29;;;;;;;4.82;2.45;;;22.50;95.60;;;;;;7402475;19;20006;-75
2023/09/18 01:38:03;;;;;;;6.38;2.10;;;22.50;95.60;;;;;;7401104;19;20070;-76
2023/09/18 01:40:32;;;;;;;7.90;2.45;;;22.50;95.70;;;;;;7380927;19;20073;-76
2023/09/18 01:43:01;;;;;;;8.23;2.55;;;22.50;95.70;;;;;;7381145;19;20032;-75
2023/09/18 01:45:30;;;;;;;4.47;2.30;;;22.40;95.60;;;;;;7381099;19;20003;-76
2023/09/18 01:47:59;;;;;;;3.88;2.22;;;22.40;95.60;;;;;;7381437;19;20027;-75
2023/09/18 01:50:27;;;;;;;6.40;2.88;;;22.40;95.50;;;;;;7383680;19;20024;-75
2023/09/18 01:52:56;;;;;;;7.25;2.60;;;22.30;95.40;;;;;;7405192;19;20011;-76
2023/09/18 01:55:29;;;;;;;7.32;2.50;;;22.30;95.50;;;;;;7379958;19;20002;-74
2023/09/18 01:57:57;;;;;;;8.23;3.28;;;22.30;95.70;;;;;;7381164;19;20023;-75
2023/09/18 02:00:26;;;;;;;7.95;2.95;;;22.30;95.80;;;;;;7383488;19;20263;-76
2023/09/18 02:02:55;;;;;;;7.50;2.38;;;22.30;95.80;;;;;;7383457;19;20026;-75
2023/09/18 02:05:23;;;;;;;5.90;2.67;;;22.20;95.70;;;;;;7391247;19;20006;-75
2023/09/18 02:07:52;;;;;;;7.05;2.60;;;22.20;95.60;;;;;;7401348;19;20062;-76
2023/09/18 02:10:21;;;;;;;7.70;2.85;;;22.20;95.50;;;;;;7379972;19;20010;-76
2023/09/18 02:12:52;;;;;;;3.95;2.72;;;22.10;95.50;;;;;;7379989;19;20260;-76
2023/09/18 02:15:21;;;;;;;9.05;2.67;;;22.10;95.80;;;;;;7380862;19;20354;-76
2023/09/18 02:17:50;;;;;;;7.57;2.83;;;22.10;95.80;;;;;;7378506;19;20031;-76
2023/09/18 02:20:18;;;;;;;8.73;2.78;;;22.10;95.90;;;;;;7400960;19;20007;-76
2023/09/18 02:22:48;;;;;;;7.68;2.85;;;22.10;95.90;;;;;;7378984;19;20010;-76
2023/09/18 02:25:17;;;;;;;8.38;3.17;;;22.10;95.90;;;;;;7379991;19;20583;-76
2023/09/18 02:27:45;;;;;;;7.07;2.92;;;22.20;96.00;;;;;;7380134;19;20064;-75
2023/09/18 02:30:19;;;;;;;4.50;2.80;;;22.20;95.90;;;;;;7379269;19;20010;-77
2023/09/18 02:32:47;;;;;;;7.30;3.15;;;22.20;95.90;;;;;;7383996;19;20242;-76
2023/09/18 02:35:16;;;;;;;7.63;3.03;;;22.10;95.80;;;;;;7403743;19;20007;-76
2023/09/18 02:37:45;;;;;;;8.05;2.67;;;22.00;95.70;;;;;;7377540;19;20003;-76
2023/09/18 02:40:14;;;;;;;6.80;2.67;;;22.10;95.90;;;;;;7381125;19;20247;-77
2023/09/18 02:42:44;;;;;;;9.05;3.25;;;22.10;96.10;;;;;;7380697;19;19999;-75
2023/09/18 02:45:13;;;;;;;5.30;3.05;;;22.10;96.10;;;;;;7382000;19;20007;-76
2023/09/18 02:47:44;;;;;;;5.75;2.75;;;22.20;96.00;;;;;;7379492;19;20235;-76
2023/09/18 02:50:13;;;;;;;9.73;2.72;;;22.20;95.90;;;;;;7400733;19;20023;-76
2023/09/18 02:52:42;;;;;;;5.80;2.90;;;22.20;96.20;;;;;;7378047;19;20002;-75
2023/09/18 02:55:13;;;;;;;8.23;3.00;;;22.20;96.00;;;;;;7377783;19;20006;-75
2023/09/18 02:57:42;;;;;;;23.50;9.93;;;22.20;95.80;;;;;;7377497;19;20003;-75
2023/09/18 03:00:12;;;;;;;12.32;6.97;;;22.30;95.90;;;;;;7378665;19;20003;-75
2023/09/18 03:02:43;;;;;;;7.45;4.85;;;22.30;95.90;;;;;;7378269;19;20260;-77
2023/09/18 03:05:12;;;;;;;;;;;22.30;95.90;;;;;;7399288;19;20006;-75
2023/09/18 03:07:44;;;;;;;10.02;3.25;;;22.30;95.70;;;;;;7377865;19;19923;-76
2023/09/18 03:10:15;;;;;;;6.35;3.13;;;22.30;95.60;;;;;;7378254;19;20372;-76
2023/09/18 03:12:44;;;;;;;;;;;22.20;95.60;;;;;;7378577;19;20070;-76
2023/09/18 03:15:13;;;;;;;10.55;3.28;;;22.20;95.80;;;;;;7381205;19;19907;-75
2023/09/18 03:17:44;;;;;;;10.93;3.03;;;22.20;95.70;;;;;;7380588;19;20010;-76
2023/09/18 03:20:13;;;;;;;;;;;22.20;95.80;;;;;;7405349;19;20011;-75
2023/09/18 03:22:44;;;;;;;10.13;2.83;;;22.30;95.70;;;;;;7385940;19;19911;-76
2023/09/18 03:25:12;;;;;;;7.43;3.17;;;22.10;95.60;;;;;;7387488;19;20003;-75
2023/09/18 03:27:41;;;;;;;8.43;3.22;;;22.10;95.80;;;;;;7383816;19;20006;-75
2023/09/18 03:30:12;;;;;;;8.27;3.75;;;22.10;96.00;;;;;;7378883;19;20007;-75
2023/09/18 03:32:44;;;;;;;14.98;3.13;;;22.20;96.00;;;;;;7378151;19;20011;-75
2023/09/18 03:35:17;;;;;;;4.90;3.00;;;22.20;95.90;;;;;;7399517;19;20011;-76
2023/09/18 03:37:48;;;;;;;9.50;3.50;;;22.20;95.70;;;;;;7375566;19;19998;-75
2023/09/18 03:40:17;;;;;;;11.35;3.40;;;22.10;95.70;;;;;;7377346;19;20403;-76
2023/09/18 03:42:48;;;;;;;11.55;3.40;;;22.10;95.70;;;;;;7379447;19;19999;-76
2023/09/18 03:45:18;;;;;;;13.32;3.70;;;22.10;95.70;;;;;;7385822;19;20006;-76
2023/09/18 03:47:50;;;;;;;7.97;2.92;;;22.10;95.70;;;;;;7384869;19;20006;-76
2023/09/18 03:50:19;;;;;;;9.43;3.22;;;22.00;96.20;;;;;;7407711;19;20003;-76
2023/09/18 03:52:47;;;;;;;8.13;3.40;;;22.10;95.80;;;;;;7383871;19;20019;-76
2023/09/18 03:55:16;;;;;;;13.23;3.78;;;22.00;95.60;;;;;;7384422;19;20016;-76
2023/09/18 03:57:47;;;;;;;6.03;3.30;;;22.00;95.80;;;;;;7385761;19;20062;-76
2023/09/18 04:00:16;;;;;;;9.38;3.10;;;22.00;95.70;;;;;;7388141;19;20003;-75
2023/09/18 04:02:45;;;;;;;15.25;3.58;;;22.00;95.70;;;;;;7384408;19;20022;-76
2023/09/18 04:05:16;;;;;;;9.52;3.25;;;22.00;95.80;;;;;;7406132;19;20115;-75
2023/09/18 04:07:46;;;;;;;;;;;22.00;95.90;;;;;;7385109;19;20062;-75
2023/09/18 04:10:20;;;;;;;7.53;3.30;;;22.10;96.00;;;;;;7386350;19;19915;-75
2023/09/18 04:12:50;;;;;;;10.93;3.60;;;22.10;95.80;;;;;;7385032;19;20374;-75
2023/09/18 04:15:19;;;;;;;7.38;3.10;;;22.10;95.80;;;;;;7383441;19;20028;-76
2023/09/18 04:17:48;;;;;;;11.30;3.80;;;22.10;95.80;;;;;;7382799;19;20010;-75
2023/09/18 04:20:19;;;;;;;7.00;3.30;;;22.10;95.70;;;;;;7405423;19;20062;-75
2023/09/18 04:22:49;;;;;;;;;;;22.00;95.80;;;;;;7383975;19;20280;-75
2023/09/18 04:25:18;;;;;;;10.88;3.58;;;22.10;95.90;;;;;;7383153;19;19910;-75
2023/09/18 04:27:49;;;;;;;10.57;3.47;;;22.10;95.80;;;;;;7383375;19;20120;-75
2023/09/18 04:30:19;;;;;;;14.05;3.47;;;22.00;95.80;;;;;;7383497;19;20012;-75
2023/09/18 04:32:48;;;;;;;13.93;4.22;;;22.10;95.80;;;;;;7382653;19;20012;-75
2023/09/18 04:35:19;;;;;;;8.50;3.10;;;22.10;95.70;;;;;;7405135;19;20007;-75
2023/09/18 04:37:48;;;;;;;;;;;22.10;95.60;;;;;;7382386;19;20058;-75
2023/09/18 04:40:17;;;;;;;8.77;3.03;;;22.10;95.70;;;;;;7384386;19;19906;-75
2023/09/18 04:42:45;;;;;;;10.45;3.78;;;22.00;95.60;;;;;;7385937;19;20009;-75
2023/09/18 04:45:15;;;;;;;4.68;2.90;;;22.00;95.70;;;;;;7384271;19;20006;-75
2023/09/18 04:47:44;;;;;;;6.65;3.47;;;22.00;95.70;;;;;;7382795;19;20003;-76
2023/09/18 04:50:13;;;;;;;11.52;3.70;;;22.00;95.70;;;;;;7405871;19;20031;-76
2023/09/18 04:52:44;;;;;;;7.25;3.50;;;22.00;95.70;;;;;;7385315;19;20022;-76
2023/09/18 04:55:13;;;;;;;;;;;22.00;95.80;;;;;;7385077;19;20002;-76
2023/09/18 04:57:41;;;;;;;15.18;3.97;;;22.10;95.80;;;;;;7382470;19;19914;-76
2023/09/18 05:00:13;;;;;;;12.07;3.53;;;22.00;95.60;;;;;;7382492;19;20280;-75
2023/09/18 05:02:42;;;;;;;8.80;3.53;;;22.10;95.70;;;;;;7382558;19;20013;-75
2023/09/18 05:05:11;;;;;;;11.02;4.03;;;22.10;95.70;;;;;;7404137;19;20028;-76
2023/09/18 05:07:40;;;;;;;7.28;3.70;;;22.10;95.80;;;;;;7381328;19;20007;-76
2023/09/18 05:10:12;;;;;;;7.18;3.80;;;22.10;95.80;;;;;;7382195;19;20014;-75
2023/09/18 05:12:44;;;;;;;8.60;3.72;;;22.10;95.70;;;;;;7382192;19;20027;-75
2023/09/18 05:15:12;;;;;;;;;;;22.10;95.70;;;;;;7384999;19;20003;-75
2023/09/18 05:17:51;;;;;;;10.20;3.72;;;22.20;95.60;;;;;;7388493;19;19915;-75
2023/09/18 05:20:20;;;;;;;11.80;3.97;;;22.10;95.90;;;;;;7410984;19;20346;-76
2023/09/18 05:22:49;;;;;;;9.57;4.20;;;22.10;95.60;;;;;;7387691;19;20016;-76
2023/09/18 05:25:21;;;;;;;5.88;3.65;;;22.20;95.70;;;;;;7386744;19;20006;-76
2023/09/18 05:27:55;;;;;;;10.10;4.25;;;22.20;95.80;;;;;;7383318;19;20011;-76
2023/09/18 05:30:29;;;;;;;9.05;4.35;;;22.30;95.80;;;;;;7381500;19;20006;-76
2023/09/18 05:33:04;;;;;;;15.82;4.15;;;22.20;95.50;;;;;;7379229;19;20023;-76
2023/09/18 05:35:36;;;;;;;15.70;4.07;;;22.20;95.50;;;;;;7381792;19;20023;-76
2023/09/18 05:38:05;;;;;;;8.40;4.40;;;22.10;95.60;;;;;;7401754;19;20007;-75
2023/09/18 05:40:39;;;;;;;8.50;4.60;;;22.10;95.60;;;;;;7380307;19;20414;-76
2023/09/18 05:43:08;;;;;;;9.05;4.43;;;22.10;95.80;;;;;;7380577;19;20280;-76
2023/09/18 05:45:39;;;;;;;9.88;4.63;;;22.10;95.80;;;;;;7381209;19;20027;-76
2023/09/18 05:48:09;;;;;;;9.77;3.67;;;22.20;95.80;;;;;;7381068;19;20114;-77
2023/09/18 05:50:38;;;;;;;17.02;4.88;;;22.30;95.80;;;;;;7382598;19;20013;-76
2023/09/18 05:53:07;;;;;;;13.27;4.82;;;22.30;95.60;;;;;;7402541;19;20350;-76
2023/09/18 05:55:38;;;;;;;11.57;4.03;;;22.30;95.60;;;;;;7379388;19;20246;-76
2023/09/18 05:58:08;;;;;;;14.48;4.80;;;22.30;95.60;;;;;;7379504;19;20011;-76
2023/09/18 06:00:37;;;;;;;19.42;5.30;;;22.30;95.60;;;;;;7380341;19;20090;-76
2023/09/18 06:03:09;;;;;;;15.55;4.88;;;22.30;95.60;;;;;;7380008;19;20026;-76
2023/09/18 06:05:38;;;;;;;10.45;5.18;;;22.30;95.60;;;;;;7378929;19;20031;-75
2023/09/18 06:08:06;;;;;;;9.45;5.07;;;22.30;95.60;;;;;;7399232;19;20012;-75
2023/09/18 06:10:40;;;;;;;13.10;4.65;;;22.30;95.50;;;;;;7379606;19;20066;-76
2023/09/18 06:13:08;;;;;;;9.65;5.50;;;22.30;95.30;;;;;;7379397;19;19998;-76
2023/09/18 06:15:37;;;;;;;8.48;5.28;;;21.90;95.70;;;;;;7379527;19;20098;-76
2023/09/18 06:18:06;;;;;;;14.80;5.55;;;22.00;95.80;;;;;;7379015;19;20003;-75
2023/09/18 06:20:35;;;;;;;12.43;6.03;;;22.00;95.80;;;;;;7379351;19;20365;-76
2023/09/18 06:23:04;;;;;;;16.17;5.68;;;22.00;95.80;;;;;;7401442;19;20433;-76
2023/09/18 06:25:38;;;;;;;11.27;5.45;;;22.00;95.90;;;;;;7381753;19;20069;-76
2023/09/18 06:28:07;;;;;;;17.60;6.30;;;22.00;95.90;;;;;;7379274;19;20003;-76
2023/09/18 06:30:37;;;;;;;18.20;6.90;;;22.00;95.90;;;;;;7379517;19;20010;-76
2023/09/18 06:33:07;;;;;;;21.60;6.03;;;22.00;96.10;;;;;;7379581;19;20014;-77
2023/09/18 06:35:35;;;;;;;19.67;6.45;;;22.00;96.10;;;;;;7378485;19;20006;-75
2023/09/18 06:38:06;;;;;;;21.73;6.13;;;22.10;96.10;;;;;;7398421;19;20016;-75
2023/09/18 06:40:37;;;;;;;16.17;6.27;;;22.20;96.20;;;;;;7378582;19;20010;-75
2023/09/18 06:43:07;;;;;;;;;;;22.30;96.00;;;;;;7379490;19;20075;-76
2023/09/18 06:45:37;;;;;;;19.70;6.65;;;22.40;95.80;;;;;;7379001;19;19982;-76
2023/09/18 06:48:07;;;;;;;14.85;5.95;;;22.40;95.70;;;;;;7379302;19;20003;-76
2023/09/18 06:50:36;;;;;;;19.27;7.03;;;22.50;95.80;;;;;;7380487;19;20251;-77
2023/09/18 06:53:22;;;;;;;18.45;5.82;;;22.40;95.50;;;;;;7405312;19;20007;-82
2023/09/18 06:55:55;;;;;;;14.95;6.65;;;22.40;95.50;;;;;;7386098;19;20006;-78
2023/09/18 06:58:24;;;;;;;12.75;6.32;;;22.40;95.50;;;;;;7377803;19;20020;-75
2023/09/18 07:00:53;;;;;;;14.90;5.68;;;22.40;95.30;;;;;;7383223;19;20011;-79
2023/09/18 07:03:23;;;;;;;21.65;6.85;;;22.40;95.50;;;;;;7380862;19;20015;-80
2023/09/18 07:05:52;;;;;;;19.67;6.53;;;22.40;95.50;;;;;;7383338;19;20042;-76
2023/09/18 07:08:43;;;;;;;10.07;6.43;;;22.40;95.40;;;;;;7401545;19;20007;-80
2023/09/18 07:14:11;;;;;;;13.73;6.10;;;22.50;95.20;;;;;;7387968;19;19915;-80
2023/09/18 07:16:40;;;;;;;14.98;6.65;;;22.50;95.20;;;;;;7417159;19;20027;-78
2023/09/18 07:19:11;;;;;;;15.52;6.35;;;22.50;95.20;;;;;;7403999;19;20033;-78
2023/09/18 07:21:41;;;;;;;12.32;6.20;;;22.50;95.20;;;;;;7403933;19;20006;-78
2023/09/18 07:24:16;;;;;;;17.75;6.55;;;22.50;95.30;;;;;;7400367;19;20007;-79
2023/09/18 07:26:48;;;;;;;16.58;5.88;;;22.20;95.40;;;;;;7390181;19;19999;-79
2023/09/18 07:29:25;;;;;;;20.45;7.35;;;22.20;95.50;;;;;;7406787;19;20358;-79
2023/09/18 07:46:47;;;;;;;;;;;;;;;;;;;;;
2023/09/18 07:52:36;;;;;;;18.90;5.65;;;22.50;95.10;;;;;;7389577;19;20014;-82
2023/09/18 07:59:35;;;;;;;;;;;;;;;;;;;;;
2023/09/18 08:02:54;;;;;;;11.02;4.55;;;22.80;94.60;;;;;;7388532;19;20965;-83
2023/09/18 08:05:27;;;;;;;8.85;5.28;;;22.90;94.20;;;;;;7286827;19;2004841;-81
2023/09/18 08:11:41;;;;;;;11.57;6.40;;;22.90;94.40;;;;;;7389214;19;20020;-81
2023/09/18 08:14:10;;;;;;;11.85;4.50;;;22.90;94.50;;;;;;7414412;19;20003;-79
2023/09/18 08:26:08;;;;;;;11.02;4.47;;;22.80;93.50;;;;;;7385686;19;20002;-80
2023/09/18 08:28:43;;;;;;;13.98;4.10;;;22.60;94.10;;;;;;7382718;19;20010;-79
2023/09/18 08:31:12;;;;;;;15.63;4.75;;;22.50;93.90;;;;;;7383393;19;20023;-79
2023/09/18 08:33:43;;;;;;;10.38;4.25;;;22.30;94.30;;;;;;7383922;19;20075;-78
2023/09/18 08:36:16;;;;;;;13.05;4.75;;;22.50;94.30;;;;;;7381326;19;20006;-77
2023/09/18 08:38:47;;;;;;;16.55;4.72;;;22.60;94.10;;;;;;7386140;19;20022;-77
2023/09/18 08:41:26;;;;;;;;;;;22.60;93.90;;;;;;7410612;19;20013;-83
2023/09/18 08:43:59;;;;;;;10.68;4.43;;;22.40;94.00;;;;;;7385555;19;19911;-79
2023/09/18 08:46:28;;;;;;;15.20;4.45;;;22.40;94.10;;;;;;7383876;19;20002;-79
2023/09/18 08:48:58;;;;;;;12.85;4.65;;;22.50;94.20;;;;;;7383721;19;20078;-78
2023/09/18 08:51:30;;;;;;;9.65;4.38;;;22.50;93.90;;;;;;7385283;19;20007;-78
2023/09/18 08:53:59;;;;;;;10.80;4.68;;;22.50;94.20;;;;;;7384569;19;20206;-77
2023/09/18 08:56:30;;;;;;;13.35;4.90;;;22.30;94.10;;;;;;7383261;19;20362;-77
2023/09/18 08:58:59;;;;;;;14.40;4.27;;;22.30;94.30;;;;;;7405220;19;20018;-77
2023/09/18 09:08:49;;;;;;;;;;;;;;;;;;;;;
2023/09/18 09:33:12;;;;;;;9.55;3.47;;;22.90;93.60;;;;;;7358959;19;19987;-82
2023/09/18 09:36:08;;;;;;;;;;;;;;;;;;;;;
2023/09/18 09:48:24;;;;;;;9.18;3.13;;;23.00;93.10;;;;;;7384833;19;19987;-83
2023/09/18 09:51:36;;;;;;;8.45;3.40;;;22.90;92.70;;;;;;7382858;19;20003;-80
2023/09/18 09:54:14;;;;;;;10.10;3.67;;;22.90;92.50;;;;;;7380515;19;20240;-80
2023/09/18 09:56:48;;;;;;;8.30;3.25;;;22.90;92.80;;;;;;7380550;19;20014;-79
2023/09/18 09:59:18;;;;;;;6.28;3.25;;;23.00;92.80;;;;;;7406423;19;20041;-80
2023/09/18 10:02:09;;;;;;;4.97;2.83;;;23.10;92.40;;;;;;7385359;19;20003;-82
2023/09/18 10:04:56;;;;;;;12.35;3.20;;;23.20;92.10;;;;;;7382441;19;20007;-81
2023/09/18 10:17:56;;;;;;;8.90;3.05;;;23.20;91.60;;;;;;7294408;19;2004312;-83
2023/09/18 10:21:10;;;;;;;5.00;2.58;;;23.20;91.70;;;;;;7399261;19;20068;-83
2023/09/18 10:24:02;;;;;;;5.70;2.55;;;23.20;91.30;;;;;;7276457;19;2004358;-77
2023/09/18 10:26:38;;;;;;;4.75;2.92;;;23.20;91.20;;;;;;7379612;19;20041;-81
2023/09/18 10:29:15;;;;;;;7.15;3.40;;;23.20;91.40;;;;;;7402445;19;20251;-81
2023/09/18 10:31:46;;;;;;;11.68;3.10;;;23.30;91.50;;;;;;7382000;19;20110;-80
2023/09/18 10:34:25;;;;;;;8.70;3.03;;;23.40;91.40;;;;;;7381602;19;20002;-81
2023/09/18 10:40:37;;;;;;;3.53;2.65;;;23.30;91.40;;;;;;7398852;19;19982;-83
2023/09/18 10:43:36;;;;;;;6.45;3.22;;;23.30;91.70;;;;;;7384254;19;20010;-81
2023/09/18 10:46:10;;;;;;;7.68;3.10;;;23.30;91.30;;;;;;7401344;19;20003;-81
2023/09/18 10:48:39;;;;;;;7.90;2.88;;;23.30;91.20;;;;;;7385205;19;20011;-81
2023/09/18 10:51:16;;;;;;;7.35;3.20;;;23.50;91.00;;;;;;7383172;19;20006;-80
2023/09/18 10:53:52;;;;;;;8.50;3.00;;;23.50;91.00;;;;;;7383486;19;20143;-80
2023/09/18 10:56:22;;;;;;;11.05;2.65;;;23.50;91.00;;;;;;7408983;19;20019;-81
2023/09/18 10:59:00;;;;;;;3.47;2.47;;;23.50;90.90;;;;;;7381734;19;20002;-79
2023/09/18 11:01:32;;;;;;;6.05;3.03;;;23.50;90.70;;;;;;7379309;19;20015;-78
2023/09/18 11:04:02;;;;;;;10.02;3.13;;;23.20;90.70;;;;;;7377554;19;20009;-77
2023/09/18 11:06:32;;;;;;;4.40;3.00;;;23.30;91.20;;;;;;7378870;19;19998;-77
2023/09/18 11:09:05;;;;;;;7.32;3.10;;;23.30;91.20;;;;;;7382701;19;20007;-82
2023/09/18 11:12:10;;;;;;;7.63;3.00;;;23.40;91.20;;;;;;7390731;19;20035;-81
2023/09/18 11:21:29;;;;;;;2.97;2.67;;;23.40;90.90;;;;;;7389300;19;20015;-81
2023/09/18 11:49:20;;;;;;;3.95;2.20;;;24.00;87.90;;;;;;7381538;19;20007;-80
2023/09/18 11:51:49;;;;;;;6.45;2.65;;;24.10;87.00;;;;;;7381946;19;20034;-78
2023/09/18 11:54:23;;;;;;;8.13;2.90;;;24.20;87.40;;;;;;7380338;19;20108;-80
2023/09/18 11:56:52;;;;;;;4.93;2.30;;;24.30;87.60;;;;;;7382310;19;20031;-81
2023/09/18 11:59:38;;;;;;;6.78;2.25;;;24.40;88.20;;;;;;7400865;19;20027;-79
2023/09/18 12:02:08;;;;;;;5.72;2.50;;;24.60;87.70;;;;;;7382599;19;20293;-81
2023/09/18 12:04:40;;;;;;;3.75;2.38;;;24.70;85.00;;;;;;7385400;19;20009;-79
2023/09/18 12:07:24;;;;;;;7.45;2.33;;;24.80;84.60;;;;;;7386851;19;20390;-82
2023/09/18 12:09:55;;;;;;;6.78;2.53;;;24.70;84.00;;;;;;7386645;19;20079;-80
2023/09/18 12:12:25;;;;;;;5.15;2.30;;;24.80;84.50;;;;;;7388874;19;20352;-82
2023/09/18 12:14:55;;;;;;;3.75;2.22;;;24.90;83.00;;;;;;7389644;19;20010;-79
2023/09/18 12:17:24;;;;;;;6.40;1.98;;;24.80;82.10;;;;;;7396642;19;20018;-79
2023/09/18 12:19:58;;;;;;;6.50;2.35;;;24.80;82.30;;;;;;7408257;19;20003;-79
2023/09/18 12:22:33;;;;;;;3.25;2.17;;;24.90;81.90;;;;;;7386032;19;20003;-78
2023/09/18 12:25:13;;;;;;;6.72;3.13;;;24.90;82.60;;;;;;7386962;19;20017;-78
2023/09/18 12:27:42;;;;;;;8.15;2.22;;;25.00;82.90;;;;;;7385062;19;20685;-77
2023/09/18 12:30:14;;;;;;;8.35;2.10;;;25.10;83.70;;;;;;7385773;19;20484;-78
2023/09/18 12:32:43;;;;;;;4.30;2.30;;;25.20;81.90;;;;;;7384940;19;20024;-77
2023/09/18 12:35:18;;;;;;;6.40;2.38;;;25.20;81.40;;;;;;7406645;19;20087;-78
2023/09/18 12:37:48;;;;;;;4.50;2.40;;;25.10;81.30;;;;;;7384738;19;20007;-77
2023/09/18 12:40:27;;;;;;;5.90;2.70;;;24.80;82.20;;;;;;7380989;19;20695;-76
2023/09/18 12:42:59;;;;;;;4.80;2.58;;;24.60;88.30;;;;;;7382397;19;20020;-75
2023/09/18 12:45:29;;;;;;;14.60;3.25;;;24.40;90.30;;;;;;7382642;19;19998;-76
2023/09/18 12:48:03;;;;;;;8.27;2.80;;;24.10;90.80;;;;;;7383873;19;20003;-79
2023/09/18 12:50:35;;;;;;;8.45;3.17;;;24.10;91.30;;;;;;7381000;19;20267;-76
2023/09/18 12:53:11;;;;;;;9.45;3.03;;;24.00;91.70;;;;;;7403707;19;20010;-77
2023/09/18 12:55:40;;;;;;;5.78;2.70;;;23.90;91.90;;;;;;7382495;19;20003;-77
2023/09/18 12:58:10;;;;;;;4.68;2.30;;;23.80;91.80;;;;;;7384585;19;20007;-76
2023/09/18 13:00:40;;;;;;;5.38;2.50;;;23.90;92.00;;;;;;7384572;19;20013;-79
2023/09/18 13:03:15;;;;;;;9.23;2.60;;;23.90;91.50;;;;;;7385928;19;20031;-79
2023/09/18 13:05:48;;;;;;;6.30;3.17;;;23.90;91.30;;;;;;7386899;19;20004;-79
2023/09/18 13:35:31;;;;;;;3.05;1.83;;;24.60;82.10;;;;;;7279699;19;2004534;-78
2023/09/18 13:38:00;;;;;;;2.30;1.95;;;24.60;82.60;;;;;;7406986;19;20018;-79
2023/09/18 13:40:29;;;;;;;5.82;2.20;;;24.80;82.90;;;;;;7382336;19;20031;-79
2023/09/18 13:42:58;;;;;;;3.88;1.85;;;24.90;82.00;;;;;;7382347;19;20013;-78
2023/09/18 13:45:26;;;;;;;3.05;1.90;;;25.00;81.20;;;;;;7383359;19;20095;-78
2023/09/18 13:47:55;;;;;;;2.03;1.70;;;25.10;80.50;;;;;;7383785;19;20027;-78
2023/09/18 13:53:52;;;;;;;3.85;2.22;;;25.40;79.00;;;;;;7256246;19;2004516;-77
2023/09/18 13:56:30;;;;;;;5.18;1.63;;;25.60;78.50;;;;;;7407348;19;20378;-83
2023/09/18 13:59:01;;;;;;;4.88;1.50;;;25.60;77.20;;;;;;7385510;19;20240;-78
2023/09/18 14:01:30;;;;;;;;;;;25.80;76.00;;;;;;7386202;19;20014;-79
2023/09/18 14:03:59;;;;;;;4.40;1.63;;;25.80;76.90;;;;;;7384917;19;19911;-79
2023/09/18 14:06:37;;;;;;;2.63;1.77;;;25.90;75.50;;;;;;7382107;19;20049;-79
2023/09/18 14:09:10;;;;;;;5.00;1.83;;;25.60;75.00;;;;;;7381237;19;20243;-79
2023/09/18 14:20:19;;;;;;;6.40;1.65;;;24.90;77.70;;;;;;7337023;19;20465;-79
2023/09/18 14:22:49;;;;;;;2.03;1.77;;;25.00;78.60;;;;;;7383682;19;20051;-79
2023/09/18 14:25:28;;;;;;;3.58;1.67;;;25.20;77.70;;;;;;7381917;19;20003;-81
2023/09/18 14:27:59;;;;;;;1.88;1.50;;;25.20;76.50;;;;;;7380591;19;20079;-81
2023/09/18 14:30:32;;;;;;;2.60;1.60;;;25.40;77.40;;;;;;7382588;19;19998;-81
2023/09/18 14:33:14;;;;;;;4.88;1.30;;;25.60;77.60;;;;;;7382988;19;20031;-80
2023/09/18 14:35:58;;;;;;;4.65;1.42;;;25.80;76.80;;;;;;7401702;19;20006;-81
2023/09/18 14:38:27;;;;;;;2.08;1.52;;;25.70;75.70;;;;;;7381310;19;20015;-77
2023/09/18 14:41:02;;;;;;;3.92;1.55;;;25.80;75.00;;;;;;7398903;19;20021;-75
2023/09/18 14:43:51;;;;;;;4.28;1.70;;;25.70;74.20;;;;;;7381164;19;20002;-79
2023/09/18 14:46:22;;;;;;;2.58;1.50;;;25.80;73.50;;;;;;7380991;19;20062;-80
2023/09/18 14:48:53;;;;;;;;;;;25.90;73.30;;;;;;7382231;19;20016;-79
2023/09/18 15:03:33;;;;;;;10.13;1.50;;;25.30;73.20;;;;;;7314748;19;20017;-78
2023/09/18 15:22:11;;;;;;;3.97;1.48;;;25.20;73.30;;;;;;7355509;19;20003;-77
2023/09/18 15:24:40;;;;;;;3.60;2.10;;;25.10;73.80;;;;;;7408363;19;20282;-79
2023/09/18 15:27:16;;;;;;;2.17;1.48;;;24.90;73.80;;;;;;7378910;19;19999;-79
2023/09/18 15:29:59;;;;;;;3.20;1.45;;;24.70;74.80;;;;;;7404936;19;20007;-79
2023/09/18 15:32:50;;;;;;;2.90;1.35;;;24.70;75.70;;;;;;7384529;19;20024;-78
2023/09/18 15:35:19;;;;;;;6.07;1.87;;;24.70;76.10;;;;;;7406996;19;20006;-78
2023/09/18 15:38:06;;;;;;;3.10;1.70;;;24.50;76.60;;;;;;7382290;19;20010;-83
2023/09/18 15:40:38;;;;;;;2.60;1.65;;;24.60;76.90;;;;;;7387329;19;20021;-78
2023/09/18 15:46:24;;;;;;;2.45;1.70;;;24.40;77.50;;;;;;7387074;19;20350;-79
2023/09/18 15:48:53;;;;;;;4.82;1.65;;;24.40;78.30;;;;;;7388299;19;20003;-79
2023/09/18 15:51:27;;;;;;;3.60;1.65;;;24.50;79.70;;;;;;7385557;19;20007;-80
2023/09/18 15:53:59;;;;;;;3.25;1.60;;;24.60;79.50;;;;;;7385534;19;20006;-79
2023/09/18 15:56:28;;;;;;;4.78;1.25;;;24.70;79.70;;;;;;7384334;19;20031;-79
2023/09/18 15:58:58;;;;;;;5.03;1.40;;;24.70;80.00;;;;;;7406049;19;20019;-79
2023/09/18 16:01:27;;;;;;;2.07;1.23;;;24.70;80.10;;;;;;7384699;19;20281;-79
2023/09/18 16:03:56;;;;;;;1.95;1.23;;;24.80;78.90;;;;;;7386415;19;20232;-80
2023/09/18 16:06:25;;;;;;;2.15;1.35;;;24.90;78.20;;;;;;7387878;19;20081;-80
2023/09/18 16:08:56;;;;;;;2.42;1.10;;;24.90;77.80;;;;;;7387257;19;20007;-79
2023/09/18 16:11:28;;;;;;;3.75;1.08;;;24.90;78.30;;;;;;7384451;19;20017;-79
2023/09/18 16:13:57;;;;;;;5.88;1.23;;;24.60;77.90;;;;;;7408400;19;20019;-79
2023/09/18 16:16:26;;;;;;;6.57;2.17;;;24.60;78.40;;;;;;7385607;19;19999;-78
2023/09/18 16:18:57;;;;;;;2.15;1.27;;;24.50;78.20;;;;;;7385981;19;20031;-79
2023/09/18 16:21:26;;;;;;;4.53;1.30;;;24.40;78.80;;;;;;7383908;19;20007;-80
2023/09/18 16:23:55;;;;;;;2.08;1.30;;;24.40;78.90;;;;;;7384096;19;20040;-80
2023/09/18 16:26:27;;;;;;;3.85;1.45;;;24.40;78.80;;;;;;7391820;19;20007;-80
2023/09/18 16:28:58;;;;;;;8.63;1.25;;;24.50;79.10;;;;;;7404618;19;20035;-80
2023/09/18 16:31:28;;;;;;;4.50;1.30;;;24.40;79.00;;;;;;7385707;19;20002;-80
2023/09/18 16:33:57;;;;;;;7.80;1.42;;;24.20;79.60;;;;;;7385532;19;20020;-80
2023/09/18 16:36:28;;;;;;;2.38;1.15;;;24.20;79.60;;;;;;7384617;19;20007;-80